sensor_id;sensor_type;location;lat;lon;timestamp;P1;durP1;ratioP1;P2;durP2;ratioP2
56041;SDS011;48756;41.374;2.066;2022-09-12T00:00:47;15.15;;;4.97;;
56041;SDS011;48756;41.374;2.066;2022-09-12T00:03:12;5.43;;;2.75;;
56041;SDS011;48756;41.374;2.066;2022-09-12T00:05:42;4.22;;;1.60;;
56041;SDS011;48756;41.374;2.066;2022-09-12T00:08:10;5.90;;;2.05;;
56041;SDS011;48756;41.374;2.066;2022-09-12T00:10:37;6.57;;;1.95;;
56041;SDS011;48756;41.374;2.066;2022-09-12T00:13:07;7.28;;;1.67;;
56041;SDS011;48756;41.374;2.066;2022-09-12T00:15:37;2.53;;;2.33;;
56041;SDS011;48756;41.374;2.066;2022-09-12T00:18:04;2.08;;;0.85;;
56041;SDS011;48756;41.374;2.066;2022-09-12T00:20:31;1.63;;;1.52;;
56041;SDS011;48756;41.374;2.066;2022-09-12T00:22:56;2.22;;;1.38;;
56041;SDS011;48756;41.374;2.066;2022-09-12T00:25:22;4.75;;;1.88;;
56041;SDS011;48756;41.374;2.066;2022-09-12T00:27:47;4.53;;;2.10;;
56041;SDS011;48756;41.374;2.066;2022-09-12T00:30:13;2.60;;;1.98;;
56041;SDS011;48756;41.374;2.066;2022-09-12T00:32:39;5.22;;;1.80;;
56041;SDS011;48756;41.374;2.066;2022-09-12T00:35:04;2.22;;;1.75;;
56041;SDS011;48756;41.374;2.066;2022-09-12T00:37:30;5.25;;;2.33;;
56041;SDS011;48756;41.374;2.066;2022-09-12T00:39:56;8.32;;;2.13;;
56041;SDS011;48756;41.374;2.066;2022-09-12T00:42:22;3.25;;;1.90;;
56041;SDS011;48756;41.374;2.066;2022-09-12T00:44:48;3.50;;;1.63;;
56041;SDS011;48756;41.374;2.066;2022-09-12T00:47:34;4.70;;;1.60;;
56041;SDS011;48756;41.374;2.066;2022-09-12T00:50:09;2.40;;;1.65;;
56041;SDS011;48756;41.374;2.066;2022-09-12T00:52:39;7.15;;;2.95;;
56041;SDS011;48756;41.374;2.066;2022-09-12T00:55:23;5.78;;;3.08;;
56041;SDS011;48756;41.374;2.066;2022-09-12T00:58:16;4.70;;;2.88;;
56041;SDS011;48756;41.374;2.066;2022-09-12T01:00:46;6.85;;;3.45;;
56041;SDS011;48756;41.374;2.066;2022-09-12T01:03:13;6.18;;;2.95;;
56041;SDS011;48756;41.374;2.066;2022-09-12T01:05:43;5.00;;;2.85;;
56041;SDS011;48756;41.374;2.066;2022-09-12T01:08:17;5.40;;;2.42;;
56041;SDS011;48756;41.374;2.066;2022-09-12T01:10:44;5.50;;;2.40;;
56041;SDS011;48756;41.374;2.066;2022-09-12T01:13:10;3.33;;;2.47;;
56041;SDS011;48756;41.374;2.066;2022-09-12T01:15:37;9.48;;;3.08;;
56041;SDS011;48756;41.374;2.066;2022-09-12T01:37:31;1.90;;;1.23;;
56041;SDS011;48756;41.374;2.066;2022-09-12T01:40:09;4.47;;;1.45;;
56041;SDS011;48756;41.374;2.066;2022-09-12T01:42:48;2.83;;;1.42;;
56041;SDS011;48756;41.374;2.066;2022-09-12T01:50:39;4.15;;;2.03;;
56041;SDS011;48756;41.374;2.066;2022-09-12T01:53:16;6.32;;;1.48;;
56041;SDS011;48756;41.374;2.066;2022-09-12T01:58:23;1.70;;;1.30;;
56041;SDS011;48756;41.374;2.066;2022-09-12T02:01:10;1.27;;;1.10;;
56041;SDS011;48756;41.374;2.066;2022-09-12T02:03:47;2.85;;;1.40;;
56041;SDS011;48756;41.374;2.066;2022-09-12T02:06:18;2.70;;;2.22;;
56041;SDS011;48756;41.374;2.066;2022-09-12T02:08:58;4.28;;;1.70;;
56041;SDS011;48756;41.374;2.066;2022-09-12T02:11:28;10.80;;;2.22;;
56041;SDS011;48756;41.374;2.066;2022-09-12T02:14:00;11.23;;;1.92;;
56041;SDS011;48756;41.374;2.066;2022-09-12T02:16:31;3.88;;;1.75;;
56041;SDS011;48756;41.374;2.066;2022-09-12T02:19:07;4.80;;;2.55;;
56041;SDS011;48756;41.374;2.066;2022-09-12T02:21:37;2.60;;;2.00;;
56041;SDS011;48756;41.374;2.066;2022-09-12T02:24:07;3.17;;;1.83;;
56041;SDS011;48756;41.374;2.066;2022-09-12T02:26:40;4.90;;;1.92;;
56041;SDS011;48756;41.374;2.066;2022-09-12T02:29:12;2.67;;;2.03;;
56041;SDS011;48756;41.374;2.066;2022-09-12T02:31:47;4.03;;;2.25;;
56041;SDS011;48756;41.374;2.066;2022-09-12T02:34:38;4.47;;;2.10;;
56041;SDS011;48756;41.374;2.066;2022-09-12T02:37:24;4.00;;;2.25;;
56041;SDS011;48756;41.374;2.066;2022-09-12T02:39:52;10.05;;;2.17;;
56041;SDS011;48756;41.374;2.066;2022-09-12T02:42:20;2.10;;;1.35;;
56041;SDS011;48756;41.374;2.066;2022-09-12T02:44:46;6.85;;;1.77;;
56041;SDS011;48756;41.374;2.066;2022-09-12T02:47:17;7.57;;;2.13;;
56041;SDS011;48756;41.374;2.066;2022-09-12T02:49:47;3.55;;;1.73;;
56041;SDS011;48756;41.374;2.066;2022-09-12T02:52:13;2.70;;;2.30;;
56041;SDS011;48756;41.374;2.066;2022-09-12T02:54:39;2.92;;;1.75;;
56041;SDS011;48756;41.374;2.066;2022-09-12T02:57:16;6.07;;;2.95;;
56041;SDS011;48756;41.374;2.066;2022-09-12T02:59:42;3.47;;;2.10;;
56041;SDS011;48756;41.374;2.066;2022-09-12T03:05:10;2.75;;;2.15;;
56041;SDS011;48756;41.374;2.066;2022-09-12T03:15:48;9.63;;;2.17;;
56041;SDS011;48756;41.374;2.066;2022-09-12T03:21:27;5.43;;;2.33;;
56041;SDS011;48756;41.374;2.066;2022-09-12T03:24:20;4.38;;;2.40;;
56041;SDS011;48756;41.374;2.066;2022-09-12T03:27:15;2.83;;;2.22;;
56041;SDS011;48756;41.374;2.066;2022-09-12T03:29:43;6.53;;;2.45;;
56041;SDS011;48756;41.374;2.066;2022-09-12T03:32:12;3.90;;;2.13;;
56041;SDS011;48756;41.374;2.066;2022-09-12T03:34:37;4.13;;;2.10;;
56041;SDS011;48756;41.374;2.066;2022-09-12T03:37:03;4.45;;;2.50;;
56041;SDS011;48756;41.374;2.066;2022-09-12T03:39:29;2.47;;;1.60;;
56041;SDS011;48756;41.374;2.066;2022-09-12T03:41:55;3.33;;;2.60;;
56041;SDS011;48756;41.374;2.066;2022-09-12T03:44:21;2.97;;;1.88;;
56041;SDS011;48756;41.374;2.066;2022-09-12T03:46:47;3.50;;;1.83;;
56041;SDS011;48756;41.374;2.066;2022-09-12T03:49:13;4.40;;;2.30;;
56041;SDS011;48756;41.374;2.066;2022-09-12T03:51:38;2.60;;;1.83;;
56041;SDS011;48756;41.374;2.066;2022-09-12T03:54:04;3.53;;;1.83;;
56041;SDS011;48756;41.374;2.066;2022-09-12T03:56:30;4.22;;;2.45;;
56041;SDS011;48756;41.374;2.066;2022-09-12T03:58:56;4.10;;;1.95;;
56041;SDS011;48756;41.374;2.066;2022-09-12T04:01:22;2.83;;;1.70;;
56041;SDS011;48756;41.374;2.066;2022-09-12T04:03:49;5.03;;;2.22;;
56041;SDS011;48756;41.374;2.066;2022-09-12T04:06:17;4.78;;;2.05;;
56041;SDS011;48756;41.374;2.066;2022-09-12T04:08:46;4.45;;;2.60;;
56041;SDS011;48756;41.374;2.066;2022-09-12T04:11:14;5.45;;;2.45;;
56041;SDS011;48756;41.374;2.066;2022-09-12T04:13:41;3.03;;;1.48;;
56041;SDS011;48756;41.374;2.066;2022-09-12T04:16:08;4.13;;;2.08;;
56041;SDS011;48756;41.374;2.066;2022-09-12T04:18:35;6.28;;;2.42;;
56041;SDS011;48756;41.374;2.066;2022-09-12T04:21:04;3.05;;;2.08;;
56041;SDS011;48756;41.374;2.066;2022-09-12T04:23:34;3.83;;;2.60;;
56041;SDS011;48756;41.374;2.066;2022-09-12T04:26:01;4.20;;;1.98;;
56041;SDS011;48756;41.374;2.066;2022-09-12T04:28:30;8.82;;;2.10;;
56041;SDS011;48756;41.374;2.066;2022-09-12T04:31:04;3.70;;;2.17;;
56041;SDS011;48756;41.374;2.066;2022-09-12T04:33:36;6.68;;;2.50;;
56041;SDS011;48756;41.374;2.066;2022-09-12T04:36:09;3.80;;;1.80;;
56041;SDS011;48756;41.374;2.066;2022-09-12T04:38:38;5.50;;;2.05;;
56041;SDS011;48756;41.374;2.066;2022-09-12T04:43:40;3.35;;;1.73;;
56041;SDS011;48756;41.374;2.066;2022-09-12T04:46:07;3.55;;;1.95;;
56041;SDS011;48756;41.374;2.066;2022-09-12T04:48:35;3.25;;;2.45;;
56041;SDS011;48756;41.374;2.066;2022-09-12T04:51:08;3.75;;;2.55;;
56041;SDS011;48756;41.374;2.066;2022-09-12T04:53:35;3.13;;;2.55;;
56041;SDS011;48756;41.374;2.066;2022-09-12T04:56:03;3.65;;;2.22;;
56041;SDS011;48756;41.374;2.066;2022-09-12T04:58:30;5.25;;;2.55;;
56041;SDS011;48756;41.374;2.066;2022-09-12T05:01:06;4.30;;;2.00;;
56041;SDS011;48756;41.374;2.066;2022-09-12T05:03:33;4.60;;;2.50;;
56041;SDS011;48756;41.374;2.066;2022-09-12T05:06:02;6.40;;;2.95;;
56041;SDS011;48756;41.374;2.066;2022-09-12T05:08:28;4.80;;;2.28;;
56041;SDS011;48756;41.374;2.066;2022-09-12T05:10:54;5.20;;;2.88;;
56041;SDS011;48756;41.374;2.066;2022-09-12T05:13:20;6.68;;;2.50;;
56041;SDS011;48756;41.374;2.066;2022-09-12T05:15:55;6.80;;;2.50;;
56041;SDS011;48756;41.374;2.066;2022-09-12T05:18:23;3.53;;;2.60;;
56041;SDS011;48756;41.374;2.066;2022-09-12T05:20:50;6.70;;;4.13;;
56041;SDS011;48756;41.374;2.066;2022-09-12T05:23:16;6.57;;;3.58;;
56041;SDS011;48756;41.374;2.066;2022-09-12T05:25:51;14.90;;;4.18;;
56041;SDS011;48756;41.374;2.066;2022-09-12T05:28:18;6.68;;;3.70;;
56041;SDS011;48756;41.374;2.066;2022-09-12T05:30:45;5.45;;;3.58;;
56041;SDS011;48756;41.374;2.066;2022-09-12T05:33:11;5.25;;;3.60;;
56041;SDS011;48756;41.374;2.066;2022-09-12T05:35:37;9.93;;;4.22;;
56041;SDS011;48756;41.374;2.066;2022-09-12T05:38:06;9.63;;;4.13;;
56041;SDS011;48756;41.374;2.066;2022-09-12T05:40:32;10.85;;;5.35;;
56041;SDS011;48756;41.374;2.066;2022-09-12T05:42:58;12.90;;;4.38;;
56041;SDS011;48756;41.374;2.066;2022-09-12T05:45:24;7.10;;;4.32;;
56041;SDS011;48756;41.374;2.066;2022-09-12T05:47:51;4.97;;;3.67;;
56041;SDS011;48756;41.374;2.066;2022-09-12T05:50:18;8.38;;;3.60;;
56041;SDS011;48756;41.374;2.066;2022-09-12T05:52:44;18.40;;;5.35;;
56041;SDS011;48756;41.374;2.066;2022-09-12T05:55:10;4.93;;;2.90;;
56041;SDS011;48756;41.374;2.066;2022-09-12T05:57:36;5.20;;;2.58;;
56041;SDS011;48756;41.374;2.066;2022-09-12T06:00:02;7.38;;;3.22;;
56041;SDS011;48756;41.374;2.066;2022-09-12T06:02:30;3.80;;;2.47;;
56041;SDS011;48756;41.374;2.066;2022-09-12T06:04:55;9.32;;;3.20;;
56041;SDS011;48756;41.374;2.066;2022-09-12T06:07:21;8.45;;;3.70;;
56041;SDS011;48756;41.374;2.066;2022-09-12T06:09:47;19.92;;;5.32;;
56041;SDS011;48756;41.374;2.066;2022-09-12T06:12:13;4.00;;;2.70;;
56041;SDS011;48756;41.374;2.066;2022-09-12T06:14:38;7.40;;;4.85;;
56041;SDS011;48756;41.374;2.066;2022-09-12T06:17:04;6.90;;;4.15;;
56041;SDS011;48756;41.374;2.066;2022-09-12T06:19:29;6.43;;;4.05;;
56041;SDS011;48756;41.374;2.066;2022-09-12T06:21:58;5.55;;;3.00;;
56041;SDS011;48756;41.374;2.066;2022-09-12T06:24:24;5.30;;;3.78;;
56041;SDS011;48756;41.374;2.066;2022-09-12T06:26:50;13.07;;;5.30;;
56041;SDS011;48756;41.374;2.066;2022-09-12T06:29:19;9.10;;;4.32;;
56041;SDS011;48756;41.374;2.066;2022-09-12T06:31:44;8.50;;;4.13;;
56041;SDS011;48756;41.374;2.066;2022-09-12T06:34:11;7.03;;;4.18;;
56041;SDS011;48756;41.374;2.066;2022-09-12T06:36:39;12.32;;;4.60;;
56041;SDS011;48756;41.374;2.066;2022-09-12T06:39:08;7.72;;;4.40;;
56041;SDS011;48756;41.374;2.066;2022-09-12T06:41:36;9.75;;;5.78;;
56041;SDS011;48756;41.374;2.066;2022-09-12T06:44:03;9.10;;;5.47;;
56041;SDS011;48756;41.374;2.066;2022-09-12T06:46:30;10.50;;;5.07;;
56041;SDS011;48756;41.374;2.066;2022-09-12T06:48:57;10.18;;;5.53;;
56041;SDS011;48756;41.374;2.066;2022-09-12T06:51:24;8.80;;;4.63;;
56041;SDS011;48756;41.374;2.066;2022-09-12T06:53:53;8.63;;;4.88;;
56041;SDS011;48756;41.374;2.066;2022-09-12T06:56:21;4.38;;;3.35;;
56041;SDS011;48756;41.374;2.066;2022-09-12T06:58:49;7.38;;;2.85;;
56041;SDS011;48756;41.374;2.066;2022-09-12T07:01:17;4.85;;;2.63;;
56041;SDS011;48756;41.374;2.066;2022-09-12T07:03:45;5.20;;;2.72;;
56041;SDS011;48756;41.374;2.066;2022-09-12T07:06:16;4.95;;;3.25;;
56041;SDS011;48756;41.374;2.066;2022-09-12T07:08:46;4.88;;;3.30;;
56041;SDS011;48756;41.374;2.066;2022-09-12T07:11:16;4.43;;;2.15;;
56041;SDS011;48756;41.374;2.066;2022-09-12T07:13:44;6.63;;;3.00;;
56041;SDS011;48756;41.374;2.066;2022-09-12T07:16:11;4.28;;;2.85;;
56041;SDS011;48756;41.374;2.066;2022-09-12T07:18:37;4.05;;;2.30;;
56041;SDS011;48756;41.374;2.066;2022-09-12T07:21:05;6.97;;;2.90;;
56041;SDS011;48756;41.374;2.066;2022-09-12T07:23:32;5.60;;;3.78;;
56041;SDS011;48756;41.374;2.066;2022-09-12T07:25:59;5.07;;;3.30;;
56041;SDS011;48756;41.374;2.066;2022-09-12T07:28:25;5.20;;;2.42;;
56041;SDS011;48756;41.374;2.066;2022-09-12T07:30:52;3.20;;;2.08;;
56041;SDS011;48756;41.374;2.066;2022-09-12T07:33:19;5.75;;;2.13;;
56041;SDS011;48756;41.374;2.066;2022-09-12T07:35:45;5.85;;;1.85;;
56041;SDS011;48756;41.374;2.066;2022-09-12T07:38:11;8.77;;;2.13;;
56041;SDS011;48756;41.374;2.066;2022-09-12T07:40:36;4.88;;;2.45;;
56041;SDS011;48756;41.374;2.066;2022-09-12T07:43:02;5.88;;;2.35;;
56041;SDS011;48756;41.374;2.066;2022-09-12T07:45:28;6.95;;;1.98;;
56041;SDS011;48756;41.374;2.066;2022-09-12T07:47:53;5.65;;;1.83;;
56041;SDS011;48756;41.374;2.066;2022-09-12T07:50:19;5.55;;;1.48;;
56041;SDS011;48756;41.374;2.066;2022-09-12T07:52:45;5.70;;;1.92;;
56041;SDS011;48756;41.374;2.066;2022-09-12T07:55:10;4.25;;;1.58;;
56041;SDS011;48756;41.374;2.066;2022-09-12T07:57:36;4.63;;;2.08;;
56041;SDS011;48756;41.374;2.066;2022-09-12T08:00:02;4.57;;;1.88;;
56041;SDS011;48756;41.374;2.066;2022-09-12T08:02:29;11.10;;;4.00;;
56041;SDS011;48756;41.374;2.066;2022-09-12T08:04:55;3.15;;;1.60;;
56041;SDS011;48756;41.374;2.066;2022-09-12T08:07:20;5.03;;;1.85;;
56041;SDS011;48756;41.374;2.066;2022-09-12T08:09:46;2.35;;;1.83;;
56041;SDS011;48756;41.374;2.066;2022-09-12T08:12:12;3.78;;;1.67;;
56041;SDS011;48756;41.374;2.066;2022-09-12T08:14:38;3.95;;;2.75;;
56041;SDS011;48756;41.374;2.066;2022-09-12T08:17:03;3.67;;;1.52;;
56041;SDS011;48756;41.374;2.066;2022-09-12T08:19:29;8.00;;;1.80;;
56041;SDS011;48756;41.374;2.066;2022-09-12T08:21:55;3.30;;;1.65;;
56041;SDS011;48756;41.374;2.066;2022-09-12T08:24:21;2.63;;;1.65;;
56041;SDS011;48756;41.374;2.066;2022-09-12T08:26:47;5.82;;;3.40;;
56041;SDS011;48756;41.374;2.066;2022-09-12T08:29:12;4.22;;;1.70;;
56041;SDS011;48756;41.374;2.066;2022-09-12T08:31:38;11.88;;;3.00;;
56041;SDS011;48756;41.374;2.066;2022-09-12T08:34:05;8.77;;;2.00;;
56041;SDS011;48756;41.374;2.066;2022-09-12T08:36:32;31.35;;;5.43;;
56041;SDS011;48756;41.374;2.066;2022-09-12T08:38:59;6.95;;;1.95;;
56041;SDS011;48756;41.374;2.066;2022-09-12T08:41:28;7.20;;;1.70;;
56041;SDS011;48756;41.374;2.066;2022-09-12T08:52:55;32.70;;;4.05;;
56041;SDS011;48756;41.374;2.066;2022-09-12T08:55:34;11.20;;;2.45;;
56041;SDS011;48756;41.374;2.066;2022-09-12T08:58:01;10.25;;;2.65;;
56041;SDS011;48756;41.374;2.066;2022-09-12T09:00:44;2.85;;;1.13;;
56041;SDS011;48756;41.374;2.066;2022-09-12T09:06:23;22.77;;;4.18;;
56041;SDS011;48756;41.374;2.066;2022-09-12T09:08:45;39.00;;;7.07;;
56041;SDS011;48756;41.374;2.066;2022-09-12T09:11:31;6.30;;;2.38;;
56041;SDS011;48756;41.374;2.066;2022-09-12T09:17:36;3.20;;;1.10;;
56041;SDS011;48756;41.374;2.066;2022-09-12T09:26:12;6.38;;;1.33;;
56041;SDS011;48756;41.374;2.066;2022-09-12T09:28:54;6.13;;;1.80;;
56041;SDS011;48756;41.374;2.066;2022-09-12T09:31:46;2.75;;;0.85;;
56041;SDS011;48756;41.374;2.066;2022-09-12T09:34:22;9.73;;;3.20;;
56041;SDS011;48756;41.374;2.066;2022-09-12T09:36:51;4.15;;;1.55;;
56041;SDS011;48756;41.374;2.066;2022-09-12T09:45:14;8.90;;;1.33;;
56041;SDS011;48756;41.374;2.066;2022-09-12T09:47:44;3.95;;;1.40;;
56041;SDS011;48756;41.374;2.066;2022-09-12T09:50:14;3.42;;;1.42;;
56041;SDS011;48756;41.374;2.066;2022-09-12T09:52:40;1.23;;;1.00;;
56041;SDS011;48756;41.374;2.066;2022-09-12T09:55:09;2.22;;;1.05;;
56041;SDS011;48756;41.374;2.066;2022-09-12T09:57:40;2.42;;;0.93;;
56041;SDS011;48756;41.374;2.066;2022-09-12T10:02:58;4.57;;;1.27;;
56041;SDS011;48756;41.374;2.066;2022-09-12T10:05:24;2.45;;;1.30;;
56041;SDS011;48756;41.374;2.066;2022-09-12T10:07:49;1.00;;;0.88;;
56041;SDS011;48756;41.374;2.066;2022-09-12T10:10:17;2.38;;;1.45;;
56041;SDS011;48756;41.374;2.066;2022-09-12T10:12:44;6.00;;;1.20;;
56041;SDS011;48756;41.374;2.066;2022-09-12T10:15:30;3.33;;;0.80;;
56041;SDS011;48756;41.374;2.066;2022-09-12T10:17:58;3.15;;;1.00;;
56041;SDS011;48756;41.374;2.066;2022-09-12T10:20:40;3.20;;;1.23;;
56041;SDS011;48756;41.374;2.066;2022-09-12T10:25:46;3.33;;;1.42;;
56041;SDS011;48756;41.374;2.066;2022-09-12T10:28:20;2.92;;;1.02;;
56041;SDS011;48756;41.374;2.066;2022-09-12T10:30:54;2.97;;;1.52;;
56041;SDS011;48756;41.374;2.066;2022-09-12T10:33:20;3.20;;;0.70;;
56041;SDS011;48756;41.374;2.066;2022-09-12T10:35:49;4.35;;;1.65;;
56041;SDS011;48756;41.374;2.066;2022-09-12T10:38:24;4.43;;;1.85;;
56041;SDS011;48756;41.374;2.066;2022-09-12T10:41:10;2.92;;;0.70;;
56041;SDS011;48756;41.374;2.066;2022-09-12T10:43:36;4.72;;;1.63;;
56041;SDS011;48756;41.374;2.066;2022-09-12T10:48:42;2.40;;;0.88;;
56041;SDS011;48756;41.374;2.066;2022-09-12T10:53:54;1.98;;;0.70;;
56041;SDS011;48756;41.374;2.066;2022-09-12T10:56:33;1.58;;;1.30;;
56041;SDS011;48756;41.374;2.066;2022-09-12T11:09:55;23.55;;;3.65;;
56041;SDS011;48756;41.374;2.066;2022-09-12T11:12:29;36.58;;;5.50;;
56041;SDS011;48756;41.374;2.066;2022-09-12T11:17:50;24.73;;;2.42;;
56041;SDS011;48756;41.374;2.066;2022-09-12T11:25:46;22.58;;;4.20;;
56041;SDS011;48756;41.374;2.066;2022-09-12T11:28:30;15.95;;;2.63;;
56041;SDS011;48756;41.374;2.066;2022-09-12T11:34:34;15.50;;;2.25;;
56041;SDS011;48756;41.374;2.066;2022-09-12T11:37:35;4.15;;;1.10;;
56041;SDS011;48756;41.374;2.066;2022-09-12T11:51:14;30.33;;;3.10;;
56041;SDS011;48756;41.374;2.066;2022-09-12T11:53:43;32.53;;;3.30;;
56041;SDS011;48756;41.374;2.066;2022-09-12T11:56:16;12.00;;;0.95;;
56041;SDS011;48756;41.374;2.066;2022-09-12T11:58:43;18.60;;;1.58;;
56041;SDS011;48756;41.374;2.066;2022-09-12T12:01:22;2.85;;;0.75;;
56041;SDS011;48756;41.374;2.066;2022-09-12T12:03:57;6.97;;;1.45;;
56041;SDS011;48756;41.374;2.066;2022-09-12T12:06:32;0.70;;;0.63;;
56041;SDS011;48756;41.374;2.066;2022-09-12T12:09:04;3.28;;;1.10;;
56041;SDS011;48756;41.374;2.066;2022-09-12T12:11:31;2.67;;;1.00;;
56041;SDS011;48756;41.374;2.066;2022-09-12T12:14:02;4.88;;;0.90;;
56041;SDS011;48756;41.374;2.066;2022-09-12T12:16:37;2.67;;;0.80;;
56041;SDS011;48756;41.374;2.066;2022-09-12T12:29:12;21.10;;;3.30;;
56041;SDS011;48756;41.374;2.066;2022-09-12T12:44:58;8.82;;;1.27;;
56041;SDS011;48756;41.374;2.066;2022-09-12T12:47:31;20.90;;;3.05;;
56041;SDS011;48756;41.374;2.066;2022-09-12T12:50:05;29.02;;;4.95;;
56041;SDS011;48756;41.374;2.066;2022-09-12T12:55:48;51.78;;;4.78;;
56041;SDS011;48756;41.374;2.066;2022-09-12T13:01:23;11.32;;;1.52;;
56041;SDS011;48756;41.374;2.066;2022-09-12T13:03:53;45.95;;;4.57;;
56041;SDS011;48756;41.374;2.066;2022-09-12T13:06:38;20.23;;;2.45;;
56041;SDS011;48756;41.374;2.066;2022-09-12T13:09:07;29.55;;;2.63;;
56041;SDS011;48756;41.374;2.066;2022-09-12T13:12:17;9.55;;;1.88;;
56041;SDS011;48756;41.374;2.066;2022-09-12T13:14:54;11.63;;;2.05;;
56041;SDS011;48756;41.374;2.066;2022-09-12T13:17:23;26.23;;;3.15;;
56041;SDS011;48756;41.374;2.066;2022-09-12T13:20:00;39.25;;;4.15;;
56041;SDS011;48756;41.374;2.066;2022-09-12T13:22:37;32.13;;;4.32;;
56041;SDS011;48756;41.374;2.066;2022-09-12T13:25:21;25.23;;;2.28;;
56041;SDS011;48756;41.374;2.066;2022-09-12T13:28:02;10.05;;;1.73;;
56041;SDS011;48756;41.374;2.066;2022-09-12T13:31:02;9.77;;;1.15;;
56041;SDS011;48756;41.374;2.066;2022-09-12T13:36:06;7.72;;;1.50;;
56041;SDS011;48756;41.374;2.066;2022-09-12T13:44:31;1.90;;;1.50;;
56041;SDS011;48756;41.374;2.066;2022-09-12T13:47:07;3.28;;;0.90;;
56041;SDS011;48756;41.374;2.066;2022-09-12T13:49:45;3.83;;;1.90;;
56041;SDS011;48756;41.374;2.066;2022-09-12T13:52:19;1.30;;;0.73;;
56041;SDS011;48756;41.374;2.066;2022-09-12T13:54:51;2.20;;;0.63;;
56041;SDS011;48756;41.374;2.066;2022-09-12T14:00:02;2.63;;;0.80;;
56041;SDS011;48756;41.374;2.066;2022-09-12T14:02:33;8.13;;;1.05;;
56041;SDS011;48756;41.374;2.066;2022-09-12T14:05:00;1.10;;;0.85;;
56041;SDS011;48756;41.374;2.066;2022-09-12T14:07:38;1.10;;;0.57;;
56041;SDS011;48756;41.374;2.066;2022-09-12T14:10:22;4.28;;;0.82;;
56041;SDS011;48756;41.374;2.066;2022-09-12T14:12:53;2.53;;;0.77;;
56041;SDS011;48756;41.374;2.066;2022-09-12T14:15:22;0.93;;;0.60;;
56041;SDS011;48756;41.374;2.066;2022-09-12T14:17:52;2.45;;;0.50;;
56041;SDS011;48756;41.374;2.066;2022-09-12T14:20:20;3.10;;;0.98;;
56041;SDS011;48756;41.374;2.066;2022-09-12T14:22:48;2.33;;;0.80;;
56041;SDS011;48756;41.374;2.066;2022-09-12T14:25:16;1.60;;;0.50;;
56041;SDS011;48756;41.374;2.066;2022-09-12T14:27:46;6.18;;;1.40;;
56041;SDS011;48756;41.374;2.066;2022-09-12T14:30:31;1.10;;;0.70;;
56041;SDS011;48756;41.374;2.066;2022-09-12T14:33:15;2.20;;;0.60;;
56041;SDS011;48756;41.374;2.066;2022-09-12T14:38:30;1.70;;;1.40;;
56041;SDS011;48756;41.374;2.066;2022-09-12T14:41:01;4.50;;;2.20;;
56041;SDS011;48756;41.374;2.066;2022-09-12T14:43:41;2.92;;;0.60;;
56041;SDS011;48756;41.374;2.066;2022-09-12T14:46:17;0.63;;;0.60;;
56041;SDS011;48756;41.374;2.066;2022-09-12T14:48:52;1.63;;;0.90;;
56041;SDS011;48756;41.374;2.066;2022-09-12T14:51:39;1.20;;;0.55;;
56041;SDS011;48756;41.374;2.066;2022-09-12T14:57:00;26.70;;;3.35;;
56041;SDS011;48756;41.374;2.066;2022-09-12T14:59:29;0.90;;;0.60;;
56041;SDS011;48756;41.374;2.066;2022-09-12T15:07:31;0.93;;;0.75;;
56041;SDS011;48756;41.374;2.066;2022-09-12T15:10:02;0.60;;;0.60;;
56041;SDS011;48756;41.374;2.066;2022-09-12T15:12:38;4.47;;;1.92;;
56041;SDS011;48756;41.374;2.066;2022-09-12T15:17:39;1.58;;;0.60;;
56041;SDS011;48756;41.374;2.066;2022-09-12T15:20:05;2.30;;;0.60;;
56041;SDS011;48756;41.374;2.066;2022-09-12T15:22:31;2.58;;;0.80;;
56041;SDS011;48756;41.374;2.066;2022-09-12T15:24:59;3.35;;;1.00;;
56041;SDS011;48756;41.374;2.066;2022-09-12T15:27:25;1.10;;;0.55;;
56041;SDS011;48756;41.374;2.066;2022-09-12T15:29:51;2.42;;;2.00;;
56041;SDS011;48756;41.374;2.066;2022-09-12T15:32:28;12.77;;;0.98;;
56041;SDS011;48756;41.374;2.066;2022-09-12T15:34:54;0.60;;;0.50;;
56041;SDS011;48756;41.374;2.066;2022-09-12T15:37:20;1.88;;;0.63;;
56041;SDS011;48756;41.374;2.066;2022-09-12T15:39:47;5.13;;;0.80;;
56041;SDS011;48756;41.374;2.066;2022-09-12T15:42:14;5.53;;;0.88;;
56041;SDS011;48756;41.374;2.066;2022-09-12T15:44:41;1.85;;;0.90;;
56041;SDS011;48756;41.374;2.066;2022-09-12T15:47:13;6.45;;;3.03;;
56041;SDS011;48756;41.374;2.066;2022-09-12T15:49:39;2.35;;;0.60;;
56041;SDS011;48756;41.374;2.066;2022-09-12T15:52:05;1.25;;;0.70;;
56041;SDS011;48756;41.374;2.066;2022-09-12T15:54:32;1.13;;;0.77;;
56041;SDS011;48756;41.374;2.066;2022-09-12T15:56:57;1.65;;;0.70;;
56041;SDS011;48756;41.374;2.066;2022-09-12T15:59:23;1.35;;;0.57;;
56041;SDS011;48756;41.374;2.066;2022-09-12T16:01:49;1.17;;;0.50;;
56041;SDS011;48756;41.374;2.066;2022-09-12T16:06:45;0.70;;;0.52;;
56041;SDS011;48756;41.374;2.066;2022-09-12T16:09:11;0.80;;;0.60;;
56041;SDS011;48756;41.374;2.066;2022-09-12T16:11:36;0.85;;;0.80;;
56041;SDS011;48756;41.374;2.066;2022-09-12T16:14:03;1.60;;;0.50;;
56041;SDS011;48756;41.374;2.066;2022-09-12T16:16:29;0.85;;;0.80;;
56041;SDS011;48756;41.374;2.066;2022-09-12T16:18:55;0.82;;;0.47;;
56041;SDS011;48756;41.374;2.066;2022-09-12T16:21:21;1.63;;;0.60;;
56041;SDS011;48756;41.374;2.066;2022-09-12T16:23:47;1.75;;;0.75;;
56041;SDS011;48756;41.374;2.066;2022-09-12T16:26:13;1.67;;;0.68;;
56041;SDS011;48756;41.374;2.066;2022-09-12T16:28:39;1.60;;;1.50;;
56041;SDS011;48756;41.374;2.066;2022-09-12T16:31:05;2.45;;;0.57;;
56041;SDS011;48756;41.374;2.066;2022-09-12T16:33:33;4.80;;;0.60;;
56041;SDS011;48756;41.374;2.066;2022-09-12T16:36:09;2.03;;;1.17;;
56041;SDS011;48756;41.374;2.066;2022-09-12T16:38:40;2.20;;;0.82;;
56041;SDS011;48756;41.374;2.066;2022-09-12T16:41:07;2.88;;;1.00;;
56041;SDS011;48756;41.374;2.066;2022-09-12T16:43:33;1.40;;;0.47;;
56041;SDS011;48756;41.374;2.066;2022-09-12T16:46:00;2.35;;;2.15;;
56041;SDS011;48756;41.374;2.066;2022-09-12T16:48:28;2.83;;;1.25;;
56041;SDS011;48756;41.374;2.066;2022-09-12T16:50:55;1.00;;;1.00;;
56041;SDS011;48756;41.374;2.066;2022-09-12T16:53:22;1.00;;;0.63;;
56041;SDS011;48756;41.374;2.066;2022-09-12T16:55:48;0.98;;;0.65;;
56041;SDS011;48756;41.374;2.066;2022-09-12T16:58:15;2.85;;;1.42;;
56041;SDS011;48756;41.374;2.066;2022-09-12T17:00:41;1.83;;;0.80;;
56041;SDS011;48756;41.374;2.066;2022-09-12T17:03:06;1.08;;;0.90;;
56041;SDS011;48756;41.374;2.066;2022-09-12T17:05:33;1.15;;;0.70;;
56041;SDS011;48756;41.374;2.066;2022-09-12T17:07:59;1.27;;;0.75;;
56041;SDS011;48756;41.374;2.066;2022-09-12T17:10:25;1.45;;;1.35;;
56041;SDS011;48756;41.374;2.066;2022-09-12T17:12:51;1.58;;;0.70;;
56041;SDS011;48756;41.374;2.066;2022-09-12T17:15:16;1.35;;;0.50;;
56041;SDS011;48756;41.374;2.066;2022-09-12T17:17:42;2.72;;;0.80;;
56041;SDS011;48756;41.374;2.066;2022-09-12T17:20:07;1.10;;;0.93;;
56041;SDS011;48756;41.374;2.066;2022-09-12T17:22:33;1.42;;;1.10;;
56041;SDS011;48756;41.374;2.066;2022-09-12T17:24:59;6.55;;;1.65;;
56041;SDS011;48756;41.374;2.066;2022-09-12T17:27:24;2.05;;;1.08;;
56041;SDS011;48756;41.374;2.066;2022-09-12T17:29:50;1.70;;;1.60;;
56041;SDS011;48756;41.374;2.066;2022-09-12T17:32:15;1.38;;;0.80;;
56041;SDS011;48756;41.374;2.066;2022-09-12T17:34:41;1.70;;;0.80;;
56041;SDS011;48756;41.374;2.066;2022-09-12T17:37:06;2.15;;;0.77;;
56041;SDS011;48756;41.374;2.066;2022-09-12T17:39:32;1.60;;;1.15;;
56041;SDS011;48756;41.374;2.066;2022-09-12T17:41:57;2.47;;;0.90;;
56041;SDS011;48756;41.374;2.066;2022-09-12T17:44:24;1.65;;;1.02;;
56041;SDS011;48756;41.374;2.066;2022-09-12T17:46:49;2.67;;;1.42;;
56041;SDS011;48756;41.374;2.066;2022-09-12T17:49:16;1.10;;;1.00;;
56041;SDS011;48756;41.374;2.066;2022-09-12T17:51:46;4.20;;;1.17;;
56041;SDS011;48756;41.374;2.066;2022-09-12T17:54:13;0.90;;;0.73;;